Pagina principale
METAR-TAF:

METAR-TAF

Aeroporti :

Buochs, Svizzera

latitudine: 46-58-28N, longitudine: 8-23-49E, altezza: 449 m

Osservazione

Il bollettino è stato emesso 12 minuti fa, alle 05:20 UTC
Vento 3 kt da sud-ovest
Temperature 0°C
Umidità 80%
Pressione 1023 hPa
Visibilità 10 km o più
nessuna nube inferiore a 1500 m e nessun cumulonembo

METAR: LSZC 200520Z AUTO 23003KT CAVOK M00/M03 Q1023

Ora: 06:32 (05:32 UTC)

Previsione

Il bollettino è stato emesso 15 ore e 7 minuti fa, alle 14:25 UTC
Previsione valida dal 19 alle 15 UTC al 19 alle 24 UTC
Vento 6 kt da est
Visibilità 10 km o più
nessuna nube inferiore a 1500 m e nessun cumulonembo
Probabilità 40% :
Temporaneamente
dal 19 alle 15 UTC al 19 alle 20 UTC
Visibilità 10 km o più
Poco nuvoloso ad un'altezza di 4000 ft

TAF: LSZC 191425Z 1915/1924 08006KT CAVOK PROB40 TEMPO 1915/1920 9999 FEW040

Osservazioni e previsioni meteorologiche di più di 4000 aeroporti (messaggi METAR e TAF).

Le stazioni disponibili sono rappresentate dai dischi gialli e rossi sulla carta.

Puntare il mouse per vedere il nome della stazione.

Clicca sopra per visualizzare le osservazioni e previsioni meteorologiche.

Per cambiare la mappa : fare clic sui pulsanti verdi con una croce nera per ingrandire, il pulsante verde con un trattino per diminuire, o sulla freccia verde per le mappe adiacenti.


METAR-TAF: